Time;durP1;ratioP1;P1;durP2;ratioP2;P2;SDS_P1;SDS_P2;PMS_P1;PMS_P2;Temp;Humidity;BMP_temperature;BMP_pressure;BME280_temperature;BME280_humidity;BME280_pressure;Samples;Min_cycle;Max_cycle;Signal;HPM_P1;HPM_P2
2021/06/12 00:00:53;;;;;;;38.27;28.60;;;;;;;14.32;100.00;99840.37;1671916;84;20996;-68
2021/06/12 00:03:19;;;;;;;41.47;29.17;;;;;;;14.27;100.00;99843.63;1697671;84;21135;-69
2021/06/12 00:05:47;;;;;;;37.40;27.70;;;;;;;14.21;100.00;99845.81;1697821;84;22126;-68
2021/06/12 00:08:13;;;;;;;52.60;28.07;;;;;;;14.19;100.00;99841.80;1697994;84;21021;-69
2021/06/12 00:10:42;;;;;;;39.03;25.67;;;;;;;14.16;100.00;99843.54;1704798;82;20947;-68
2021/06/12 00:13:09;;;;;;;36.80;24.30;;;;;;;14.15;100.00;99843.25;1715486;82;21003;-68
2021/06/12 00:15:37;;;;;;;32.17;20.70;;;;;;;14.09;100.00;99844.42;1725724;83;21130;-69
2021/06/12 00:18:08;;;;;;;50.77;20.90;;;;;;;14.13;100.00;99840.86;1737916;82;21387;-69
2021/06/12 00:20:35;;;;;;;48.80;18.20;;;;;;;14.16;100.00;99837.78;1738838;82;21016;-69
2021/06/12 00:23:02;;;;;;;35.53;18.17;;;;;;;14.10;100.00;99838.16;1737760;82;21376;-68
2021/06/12 00:25:30;;;;;;;22.40;16.53;;;;;;;14.10;100.00;99835.53;1737563;82;20952;-68
2021/06/12 00:27:58;;;;;;;29.67;15.27;;;;;;;14.15;100.00;99831.45;1737503;82;21147;-69
2021/06/12 00:30:25;;;;;;;45.97;14.97;;;;;;;14.15;100.00;99828.84;1737912;82;20997;-68
2021/06/12 00:32:52;;;;;;;24.17;14.37;;;;;;;14.12;100.00;99834.79;1721385;82;20929;-68
2021/06/12 00:35:19;;;;;;;19.80;13.70;;;;;;;14.14;100.00;99833.28;1737709;82;21075;-68
2021/06/12 00:37:46;;;;;;;17.67;12.60;;;;;;;14.04;100.00;99833.77;1737114;82;21617;-69
2021/06/12 00:40:14;;;;;;;16.73;11.93;;;;;;;14.01;100.00;99834.70;1737780;82;21118;-68
2021/06/12 00:42:42;;;;;;;20.17;12.53;;;;;;;14.00;100.00;99830.48;1737662;82;20975;-69
2021/06/12 00:45:13;;;;;;;16.20;11.23;;;;;;;13.94;100.00;99834.78;1737507;82;21094;-68
2021/06/12 00:47:41;;;;;;;17.98;13.43;;;;;;;13.94;100.00;99824.78;1737672;82;20987;-68
2021/06/12 00:50:09;;;;;;;19.17;12.53;;;;;;;13.89;100.00;99822.81;1714568;82;21016;-68
2021/06/12 00:52:37;;;;;;;15.17;10.63;;;;;;;13.85;100.00;99825.06;1738319;82;21167;-67
2021/06/12 00:55:08;;;;;;;14.27;10.63;;;;;;;13.81;100.00;99823.89;1737290;82;21010;-68
2021/06/12 00:57:36;;;;;;;14.90;11.35;;;;;;;13.77;100.00;99825.34;1738233;82;20990;-68
2021/06/12 01:00:06;;;;;;;13.10;11.43;;;;;;;13.73;100.00;99822.85;1736741;82;21410;-67
2021/06/12 01:02:34;;;;;;;13.53;11.70;;;;;;;13.69;100.00;99829.53;1738240;82;21117;-67
2021/06/12 01:05:01;;;;;;;14.87;11.13;;;;;;;13.66;100.00;99833.09;1737370;82;21145;-68
2021/06/12 01:07:27;;;;;;;15.60;12.43;;;;;;;13.62;100.00;99832.20;1737512;82;21086;-67
2021/06/12 01:09:55;;;;;;;17.83;12.63;;;;;;;13.61;100.00;99833.73;1736379;82;21118;-68
2021/06/12 01:12:56;;;;;;;15.17;12.13;;;;;;;13.61;100.00;99833.73;1738258;82;22147;-67
2021/06/12 01:15:22;;;;;;;15.00;11.23;;;;;;;13.61;100.00;99824.56;1720877;82;22228;-69
2021/06/12 01:18:00;;;;;;;25.30;13.03;;;;;;;13.63;100.00;99833.00;1736782;82;21145;-67
2021/06/12 01:20:57;;;;;;;31.17;13.17;;;;;;;13.68;100.00;99831.07;1738180;82;20996;-69
2021/06/12 01:23:51;;;;;;;16.13;11.80;;;;;;;13.67;100.00;99832.86;1738147;82;21348;-67
2021/06/12 01:26:52;;;;;;;17.43;11.40;;;;;;;13.69;100.00;99833.47;1689081;82;21676;-67
2021/06/12 01:30:06;;;;;;;15.18;11.00;;;;;;;13.68;100.00;99829.77;1719804;82;20951;-68
2021/06/12 01:32:38;;;;;;;14.37;11.70;;;;;;;13.63;100.00;99829.06;1725444;82;21808;-67
2021/06/12 01:35:37;;;;;;;15.60;10.88;;;;;;;13.57;100.00;99834.66;1737297;82;21477;-67
2021/06/12 01:38:05;;;;;;;14.33;10.27;;;;;;;13.54;100.00;99840.32;1736726;82;21478;-68
2021/06/12 01:40:35;;;;;;;13.53;10.20;;;;;;;13.54;100.00;99839.52;1732480;82;21095;-68
2021/06/12 01:43:03;;;;;;;13.13;10.07;;;;;;;13.50;100.00;99838.34;1735269;82;21090;-67
2021/06/12 01:45:30;;;;;;;11.60;9.13;;;;;;;13.45;100.00;99842.08;1737608;82;21207;-67
2021/06/12 01:47:57;;;;;;;10.97;8.47;;;;;;;13.42;100.00;99838.61;1736702;82;20920;-67
2021/06/12 01:50:24;;;;;;;10.13;8.60;;;;;;;13.50;100.00;99843.58;1686269;82;21082;-69
2021/06/12 01:52:52;;;;;;;10.93;9.10;;;;;;;13.50;100.00;99843.58;1736530;82;21058;-69
2021/06/12 01:55:21;;;;;;;11.40;9.10;;;;;;;13.54;100.00;99842.14;1737577;82;21010;-68
2021/06/12 01:57:48;;;;;;;11.37;9.00;;;;;;;13.64;100.00;99845.09;1736757;82;21825;-68
2021/06/12 02:00:16;;;;;;;12.47;9.27;;;;;;;13.79;100.00;99844.27;1737927;82;20904;-69
2021/06/12 02:02:43;;;;;;;16.43;11.33;;;;;;;13.92;100.00;99842.05;1736719;82;20932;-68
2021/06/12 02:05:13;;;;;;;12.53;8.77;;;;;;;14.13;100.00;99844.80;1738288;82;21078;-68
2021/06/12 02:07:40;;;;;;;13.40;7.93;;;;;;;14.44;100.00;99838.63;1737068;82;21495;-69
2021/06/12 02:10:09;;;;;;;11.27;8.47;;;;;;;14.79;100.00;99845.41;1699147;82;21626;-69
2021/06/12 02:26:13;;;;;;;9.35;8.18;;;;;;;17.65;100.00;99835.89;1770038;79;28011;-70
2021/06/12 02:28:39;;;;;;;9.13;7.63;;;;;;;18.21;100.00;99839.36;1734593;81;21496;-68
2021/06/12 02:31:20;;;;;;;9.67;7.87;;;;;;;18.73;100.00;99844.00;1719348;81;21087;-68
2021/06/12 02:33:46;;;;;;;8.63;7.33;;;;;;;19.37;100.00;99842.81;1704400;81;20981;-69
2021/06/12 02:36:14;;;;;;;9.00;7.43;;;;;;;20.02;100.00;99833.80;1720094;81;21009;-69
2021/06/12 02:38:41;;;;;;;7.67;6.87;;;;;;;20.51;100.00;99816.88;1708790;81;21059;-68
2021/06/12 02:41:08;;;;;;;10.87;7.00;;;;;;;21.06;100.00;99809.62;1702833;81;21035;-68
2021/06/12 02:43:35;;;;;;;8.83;7.03;;;;;;;21.63;100.00;99797.20;1706796;81;21645;-67
2021/06/12 02:46:05;;;;;;;10.87;8.30;;;;;;;22.08;100.00;99779.03;1704179;81;20986;-70
2021/06/12 02:48:32;;;;;;;8.37;7.20;;;;;;;22.47;100.00;99768.30;1717454;81;21500;-68
2021/06/12 02:51:00;;;;;;;8.47;7.30;;;;;;;22.86;100.00;99767.54;1707937;81;21026;-68
2021/06/12 02:53:29;;;;;;;7.53;6.73;;;;;;;23.23;100.00;99765.70;1717081;81;20991;-67
2021/06/12 02:55:59;;;;;;;8.38;7.45;;;;;;;23.64;100.00;99766.64;1699730;81;26834;-68
2021/06/12 02:58:27;;;;;;;12.83;7.83;;;;;;;24.02;100.00;99765.75;1718902;81;21017;-67
2021/06/12 03:00:55;;;;;;;9.73;7.90;;;;;;;24.31;100.00;99759.52;1704900;79;20992;-67
2021/06/12 03:03:22;;;;;;;9.58;7.03;;;;;;;24.44;100.00;99756.20;1727203;81;22311;-68
2021/06/12 03:05:53;;;;;;;8.23;7.47;;;;;;;24.79;100.00;99767.44;1719931;81;20951;-68
2021/06/12 03:08:20;;;;;;;8.98;7.85;;;;;;;25.08;100.00;99766.45;1721279;82;21459;-68
2021/06/12 03:10:48;;;;;;;8.10;7.30;;;;;;;25.25;100.00;99762.75;1721136;81;20995;-67
2021/06/12 03:13:18;;;;;;;11.73;7.17;;;;;;;25.53;100.00;99774.27;1721077;82;20900;-67
2021/06/12 03:15:44;;;;;;;8.70;6.42;;;;;;;25.60;100.00;99774.67;1687853;84;21012;-70
2021/06/12 03:18:11;;;;;;;8.63;6.65;;;;;;;25.80;100.00;99768.73;1690225;83;21402;-68
2021/06/12 03:20:38;;;;;;;6.50;5.90;;;;;;;26.11;100.00;99767.06;1687946;84;21166;-68
2021/06/12 03:23:05;;;;;;;6.33;5.67;;;;;;;26.40;100.00;99764.07;1700264;83;20920;-68
2021/06/12 03:25:32;;;;;;;6.33;5.47;;;;;;;26.93;100.00;99767.45;1642553;84;20951;-69
2021/06/12 03:27:58;;;;;;;5.90;5.30;;;;;;;27.10;100.00;99768.66;1687177;84;21072;-69
2021/06/12 03:30:25;;;;;;;7.35;4.72;;;;;;;27.54;100.00;99767.03;1720741;83;21845;-68
2021/06/12 03:32:52;;;;;;;5.33;4.47;;;;;;;28.00;100.00;99765.28;1720727;82;21143;-68
2021/06/12 03:35:19;;;;;;;5.92;4.30;;;;;;;28.50;100.00;99769.50;1688151;84;21003;-68
2021/06/12 03:37:46;;;;;;;6.60;4.37;;;;;;;28.92;100.00;99768.47;1719507;82;20928;-68
2021/06/12 03:40:14;;;;;;;7.22;4.47;;;;;;;29.17;100.00;99769.55;1720121;81;21423;-68
2021/06/12 03:42:41;;;;;;;5.50;4.15;;;;;;;29.44;100.00;99775.12;1720203;82;21130;-68
2021/06/12 03:45:10;;;;;;;6.92;4.08;;;;;;;29.84;100.00;99776.95;1687642;84;21149;-68
2021/06/12 03:47:38;;;;;;;4.95;3.90;;;;;;;30.24;100.00;99781.99;1696317;84;21551;-68
2021/06/12 03:50:08;;;;;;;5.62;4.60;;;;;;;30.43;100.00;99775.61;1719137;82;21437;-69
2021/06/12 03:52:35;;;;;;;;;;;;;;;30.62;100.00;99781.09;1722303;82;21635;-69
2021/06/12 03:55:03;;;;;;;5.30;4.37;;;;;;;30.93;100.00;99773.41;1720326;82;20161;-69
2021/06/12 03:57:30;;;;;;;4.87;4.10;;;;;;;31.26;100.00;99772.05;1719718;81;21846;-67
2021/06/12 03:59:57;;;;;;;6.03;4.65;;;;;;;31.49;100.00;99778.41;1686961;84;21573;-68
2021/06/12 04:02:23;;;;;;;4.30;3.67;;;;;;;31.78;100.00;99790.09;1695994;83;21448;-68
2021/06/12 04:04:51;;;;;;;5.40;3.60;;;;;;;32.08;100.00;99792.02;1672549;84;21046;-69
2021/06/12 04:07:19;;;;;;;4.80;4.00;;;;;;;32.30;100.00;99791.55;1673244;84;20971;-68
2021/06/12 04:09:46;;;;;;;4.40;3.85;;;;;;;32.80;100.00;99790.88;1664107;84;21156;-68
2021/06/12 04:12:13;;;;;;;4.97;4.25;;;;;;;33.03;100.00;99793.84;1633099;86;21484;-69
2021/06/12 04:14:40;;;;;;;4.70;4.28;;;;;;;33.35;100.00;99790.64;1664933;84;20975;-68
2021/06/12 04:17:08;;;;;;;4.58;3.87;;;;;;;33.79;99.55;99796.78;1664726;84;21054;-68
2021/06/12 04:19:40;;;;;;;4.45;4.00;;;;;;;34.14;91.01;99792.00;1664564;84;21086;-68
2021/06/12 04:22:06;;;;;;;4.80;3.85;;;;;;;34.23;89.15;99791.22;1666032;84;21467;-68
2021/06/12 04:24:34;;;;;;;4.75;3.75;;;;;;;34.49;88.55;99793.34;1664671;84;21050;-68
2021/06/12 04:27:02;;;;;;;4.08;3.65;;;;;;;34.74;84.45;99793.05;1665609;84;22169;-69
2021/06/12 04:29:29;;;;;;;4.17;3.75;;;;;;;35.03;85.31;99790.36;1665362;84;21477;-70
2021/06/12 04:31:55;;;;;;;4.30;3.90;;;;;;;35.18;77.28;99787.33;1664565;84;21619;-69
2021/06/12 04:34:22;;;;;;;4.75;4.12;;;;;;;35.24;79.41;99791.32;1663322;84;21154;-69
2021/06/12 04:36:51;;;;;;;5.97;3.85;;;;;;;35.44;78.26;99795.53;1666251;84;21631;-69
2021/06/12 04:39:17;;;;;;;5.03;4.40;;;;;;;35.63;78.00;99792.57;1667692;85;20947;-70
2021/06/12 04:41:44;;;;;;;5.03;4.33;;;;;;;35.68;75.64;99792.25;1663989;84;21062;-70
2021/06/12 04:44:11;;;;;;;4.65;4.10;;;;;;;35.60;76.03;99794.65;1663478;84;21823;-70
2021/06/12 04:46:39;;;;;;;5.30;3.87;;;;;;;35.65;78.80;99796.50;1665830;84;21333;-69
2021/06/12 04:49:06;;;;;;;4.92;3.95;;;;;;;35.76;71.82;99797.99;1665587;84;21177;-70
2021/06/12 04:51:33;;;;;;;3.95;3.55;;;;;;;35.39;74.11;99797.77;1665409;84;21637;-69
2021/06/12 04:54:00;;;;;;;4.87;4.37;;;;;;;35.10;79.40;99791.27;1664756;84;20972;-70
2021/06/12 04:56:26;;;;;;;4.97;4.10;;;;;;;35.08;80.39;99793.56;1664953;86;21371;-68
2021/06/12 04:58:53;;;;;;;4.95;3.92;;;;;;;35.17;81.49;99796.03;1665369;84;21431;-68
2021/06/12 05:01:20;;;;;;;4.22;3.35;;;;;;;35.38;79.08;99791.55;1663885;84;21090;-68
2021/06/12 05:03:47;;;;;;;5.15;3.77;;;;;;;35.16;76.27;99797.73;1654507;85;20987;-69
2021/06/12 05:06:13;;;;;;;7.83;4.10;;;;;;;34.90;81.58;99798.41;1653572;86;20995;-69
2021/06/12 05:08:40;;;;;;;6.10;4.53;;;;;;;34.98;82.45;99796.83;1655245;85;21855;-69
2021/06/12 05:11:07;;;;;;;5.60;4.70;;;;;;;35.30;80.85;99800.70;1650437;85;21226;-69
2021/06/12 05:13:35;;;;;;;5.65;4.70;;;;;;;35.52;86.05;99798.59;1661820;84;21094;-70
2021/06/12 05:16:04;;;;;;;6.30;4.05;;;;;;;35.75;78.77;99804.57;1644836;86;21165;-71
2021/06/12 05:18:40;;;;;;;6.17;4.75;;;;;;;35.91;79.38;99802.48;1643526;86;20970;-69
2021/06/12 05:21:04;;;;;;;4.78;4.15;;;;;;;36.04;75.00;99803.88;1648836;86;21098;-70
2021/06/12 05:23:30;;;;;;;4.60;4.15;;;;;;;35.75;75.60;99798.57;1652420;86;21389;-69
2021/06/12 05:25:57;;;;;;;6.50;4.67;;;;;;;35.80;75.60;99804.25;1662739;85;21520;-70
2021/06/12 05:28:24;;;;;;;4.47;4.05;;;;;;;36.06;75.72;99800.22;1663130;84;21046;-68
2021/06/12 05:30:50;;;;;;;5.40;4.55;;;;;;;36.23;72.76;99800.84;1661993;85;20996;-69
2021/06/12 05:33:17;;;;;;;4.17;3.70;;;;;;;36.25;74.66;99805.32;1661545;84;21035;-69
2021/06/12 05:35:43;;;;;;;4.45;3.98;;;;;;;36.49;71.72;99807.62;1667146;84;22177;-69
2021/06/12 05:38:10;;;;;;;4.67;4.15;;;;;;;36.70;68.39;99803.59;1672127;84;21026;-69
2021/06/12 05:40:36;;;;;;;4.28;3.87;;;;;;;36.97;63.09;99805.08;1668338;84;21070;-69
2021/06/12 05:43:04;;;;;;;5.40;4.40;;;;;;;37.02;59.87;99809.41;1659056;85;21632;-69
2021/06/12 05:45:30;;;;;;;6.00;4.10;;;;;;;36.78;62.60;99801.16;1659489;86;21117;-69
2021/06/12 05:47:57;;;;;;;5.03;4.53;;;;;;;36.61;64.26;99805.82;1662628;84;21154;-69
2021/06/12 05:50:24;;;;;;;4.35;3.10;;;;;;;36.56;67.94;99804.77;1659396;85;21592;-69
2021/06/12 05:52:50;;;;;;;4.25;2.62;;;;;;;36.35;61.60;99804.69;1651916;85;21555;-69
2021/06/12 05:55:17;;;;;;;4.10;3.10;;;;;;;35.49;59.19;99805.28;1654945;85;21976;-69
2021/06/12 05:57:44;;;;;;;3.77;2.50;;;;;;;34.50;69.60;99802.25;1651177;85;21020;-69
2021/06/12 06:00:12;;;;;;;2.87;2.30;;;;;;;33.95;72.51;99795.98;1656822;85;22046;-69
2021/06/12 06:02:42;;;;;;;3.92;2.60;;;;;;;33.45;75.48;99798.20;1660794;85;20986;-69
2021/06/12 06:05:09;;;;;;;3.85;2.87;;;;;;;33.17;83.02;99800.97;1665029;85;21884;-69
2021/06/12 06:07:36;;;;;;;3.58;2.62;;;;;;;33.05;85.95;99805.09;1664845;85;21021;-69
2021/06/12 06:10:04;;;;;;;3.87;2.40;;;;;;;32.81;90.32;99799.99;1665212;85;21443;-69
2021/06/12 06:12:30;;;;;;;4.30;2.40;;;;;;;32.84;92.54;99799.28;1664837;84;21161;-68
2021/06/12 06:14:59;;;;;;;2.90;2.47;;;;;;;33.17;91.21;99803.67;1665203;84;21034;-69
2021/06/12 06:17:25;;;;;;;3.08;2.33;;;;;;;33.56;88.02;99793.88;1665790;84;21536;-69
2021/06/12 06:19:52;;;;;;;4.00;2.70;;;;;;;33.99;85.42;99791.46;1663076;85;20975;-69
2021/06/12 06:22:19;;;;;;;3.98;2.77;;;;;;;34.35;82.07;99794.37;1663900;84;21070;-68
2021/06/12 06:24:45;;;;;;;3.98;2.50;;;;;;;34.61;82.00;99796.48;1664952;84;22258;-69
2021/06/12 06:27:12;;;;;;;5.70;2.98;;;;;;;34.72;77.41;99794.00;1665388;84;21030;-69
2021/06/12 06:29:38;;;;;;;3.80;2.58;;;;;;;34.74;76.17;99793.05;1665291;84;20951;-69
2021/06/12 06:32:06;;;;;;;3.65;2.58;;;;;;;34.86;74.70;99801.05;1664897;84;21012;-70
2021/06/12 06:34:33;;;;;;;3.30;2.20;;;;;;;35.00;75.29;99804.03;1664706;84;21789;-69
2021/06/12 06:36:59;;;;;;;3.17;2.30;;;;;;;35.12;72.14;99800.95;1665516;84;21543;-69
2021/06/12 06:39:26;;;;;;;2.95;2.22;;;;;;;35.37;69.58;99799.47;1665371;84;20912;-69
2021/06/12 06:41:53;;;;;;;2.67;2.22;;;;;;;35.37;68.27;99799.47;1653427;85;21091;-69
2021/06/12 06:44:19;;;;;;;3.08;2.42;;;;;;;35.36;65.59;99803.91;1665629;84;21531;-68
2021/06/12 06:46:46;;;;;;;4.67;2.70;;;;;;;35.34;66.04;99802.33;1664719;84;20912;-68
2021/06/12 06:49:12;;;;;;;3.33;2.45;;;;;;;35.42;68.94;99799.19;1666033;84;22044;-69
2021/06/12 06:51:39;;;;;;;3.10;2.55;;;;;;;35.71;69.38;99808.58;1663469;84;21732;-68
2021/06/12 06:54:06;;;;;;;2.83;2.50;;;;;;;36.03;62.06;99805.05;1664124;84;21089;-69
2021/06/12 06:56:32;;;;;;;3.30;2.85;;;;;;;36.09;65.36;99801.42;1665524;84;20971;-68
2021/06/12 06:58:59;;;;;;;4.10;3.02;;;;;;;35.73;62.18;99801.45;1667551;84;22332;-69
2021/06/12 07:01:26;;;;;;;4.33;2.85;;;;;;;35.13;72.17;99804.67;1670252;84;21167;-69
2021/06/12 07:03:53;;;;;;;3.55;2.55;;;;;;;34.86;75.03;99800.47;1681151;83;21089;-67
2021/06/12 07:06:19;;;;;;;3.67;2.98;;;;;;;34.91;77.61;99800.75;1665622;84;21092;-68
2021/06/12 07:08:46;;;;;;;3.42;2.40;;;;;;;34.86;68.65;99799.70;1672351;84;21072;-68
2021/06/12 07:11:13;;;;;;;3.12;2.42;;;;;;;34.71;64.28;99805.97;1673682;83;21483;-68
2021/06/12 07:13:39;;;;;;;3.17;2.40;;;;;;;34.52;67.56;99808.88;1686297;83;21830;-68
2021/06/12 07:16:06;;;;;;;3.35;2.20;;;;;;;34.43;75.54;99802.06;1689432;83;20995;-67
2021/06/12 07:18:32;;;;;;;5.10;2.25;;;;;;;34.52;73.81;99793.22;1700355;83;21494;-69
2021/06/12 07:20:59;;;;;;;3.47;2.40;;;;;;;34.53;65.40;99798.84;1694955;84;20995;-68
2021/06/12 07:23:25;;;;;;;3.02;2.47;;;;;;;34.15;70.35;99798.97;1727167;81;20899;-68
2021/06/12 07:25:52;;;;;;;4.78;2.30;;;;;;;33.96;68.93;99797.53;1719627;81;21104;-68
2021/06/12 07:28:19;;;;;;;3.62;2.60;;;;;;;33.77;71.75;99799.61;1720605;82;21402;-68
2021/06/12 07:30:45;;;;;;;3.05;2.17;;;;;;;33.74;77.41;99798.95;1687620;84;20943;-69
2021/06/12 07:33:13;;;;;;;4.72;3.00;;;;;;;33.72;73.55;99795.26;1720531;82;21406;-69
2021/06/12 07:35:41;;;;;;;3.30;2.55;;;;;;;33.54;75.83;99801.57;1686996;84;21020;-69
2021/06/12 07:38:07;;;;;;;3.40;2.42;;;;;;;33.18;78.27;99803.89;1698223;84;22228;-67
2021/06/12 07:40:35;;;;;;;3.25;2.40;;;;;;;33.14;81.97;99797.04;1699933;83;21118;-69
2021/06/12 07:43:01;;;;;;;4.37;2.37;;;;;;;33.27;84.35;99799.70;1687340;84;20932;-69
2021/06/12 07:45:29;;;;;;;3.45;2.60;;;;;;;33.08;74.63;99803.06;1687004;84;21121;-70
2021/06/12 07:47:57;;;;;;;2.72;2.50;;;;;;;32.45;78.63;99803.58;1657594;84;21051;-70
2021/06/12 07:50:25;;;;;;;2.90;2.30;;;;;;;31.86;87.43;99800.00;1687389;84;22109;-69
2021/06/12 07:52:52;;;;;;;3.35;2.30;;;;;;;31.49;90.96;99798.61;1686860;84;20960;-69
2021/06/12 07:55:19;;;;;;;2.70;2.50;;;;;;;31.59;90.97;99798.16;1687631;84;21070;-70
2021/06/12 07:57:45;;;;;;;3.47;2.90;;;;;;;31.74;88.23;99798.84;1687328;84;21568;-68
2021/06/12 08:00:14;;;;;;;3.47;2.72;;;;;;;31.80;90.53;99795.95;1686996;84;21141;-68
2021/06/12 08:02:42;;;;;;;3.95;2.80;;;;;;;31.75;88.42;99788.88;1700176;83;21222;-69
2021/06/12 08:05:09;;;;;;;2.90;2.40;;;;;;;31.51;87.43;99790.97;1699232;83;21059;-69
2021/06/12 08:07:35;;;;;;;4.90;2.72;;;;;;;31.05;88.14;99787.46;1719450;82;21541;-69
2021/06/12 08:10:03;;;;;;;3.77;2.80;;;;;;;30.47;93.68;99783.81;1686854;84;20944;-68
2021/06/12 08:12:31;;;;;;;4.30;2.87;;;;;;;29.79;100.00;99785.98;1699782;83;20960;-68
2021/06/12 08:14:59;;;;;;;3.22;2.62;;;;;;;29.16;100.00;99784.88;1698807;83;21593;-69
2021/06/12 08:17:26;;;;;;;3.47;2.98;;;;;;;28.64;100.00;99780.87;1720011;81;21863;-68
2021/06/12 08:19:53;;;;;;;3.40;2.58;;;;;;;28.24;100.00;99778.26;1719958;82;20992;-68
2021/06/12 08:22:20;;;;;;;3.75;2.67;;;;;;;27.99;100.00;99778.97;1718944;81;20916;-69
2021/06/12 08:24:48;;;;;;;3.35;2.77;;;;;;;28.06;100.00;99779.31;1720094;81;21057;-68
2021/06/12 08:27:16;;;;;;;4.12;2.72;;;;;;;28.44;100.00;99784.15;1719178;82;21142;-70
2021/06/12 08:29:49;;;;;;;3.47;2.60;;;;;;;29.12;100.00;99778.56;1715802;81;20992;-68
2021/06/12 08:32:15;;;;;;;5.95;3.27;;;;;;;29.71;100.00;99772.59;1687175;84;21093;-67
2021/06/12 08:34:43;;;;;;;3.52;3.20;;;;;;;30.18;100.00;99765.81;1697284;83;20984;-67
2021/06/12 08:37:09;;;;;;;3.40;2.60;;;;;;;30.62;100.00;99765.73;1687306;84;20959;-68
2021/06/12 08:39:36;;;;;;;2.83;2.42;;;;;;;31.15;100.00;99761.48;1693235;84;21153;-69
2021/06/12 08:42:04;;;;;;;3.17;2.80;;;;;;;31.91;98.29;99766.10;1699188;84;20937;-68
2021/06/12 08:44:32;;;;;;;7.45;2.70;;;;;;;32.48;91.69;99761.65;1719852;81;21073;-68
2021/06/12 08:46:58;;;;;;;3.25;2.47;;;;;;;32.52;88.40;99761.97;1719453;82;20982;-69
2021/06/12 08:49:26;;;;;;;3.40;2.80;;;;;;;32.38;89.49;99765.00;1719843;82;21015;-68
2021/06/12 08:51:53;;;;;;;2.92;2.60;;;;;;;32.20;81.31;99763.15;1719412;82;21114;-69
2021/06/12 08:54:21;;;;;;;4.35;2.40;;;;;;;31.95;83.72;99761.61;1719509;82;21001;-68
2021/06/12 08:56:48;;;;;;;3.83;2.60;;;;;;;31.64;90.44;99756.19;1719127;81;21619;-69
2021/06/12 08:59:15;;;;;;;3.72;2.65;;;;;;;31.21;99.11;99754.73;1719774;82;21542;-68
2021/06/12 09:01:43;;;;;;;3.87;2.72;;;;;;;31.14;96.30;99758.56;1720044;81;21074;-68
2021/06/12 09:04:10;;;;;;;5.22;2.98;;;;;;;30.52;100.00;99770.16;1709133;82;21165;-69
2021/06/12 09:06:36;;;;;;;3.50;2.62;;;;;;;29.92;100.00;99775.33;1706608;83;21031;-68
2021/06/12 09:09:04;;;;;;;4.60;2.67;;;;;;;29.92;100.00;99775.33;1705834;83;20975;-68
2021/06/12 09:11:34;;;;;;;4.50;3.10;;;;;;;29.58;100.00;99779.18;1663255;86;20971;-68
2021/06/12 09:14:01;;;;;;;4.00;2.40;;;;;;;29.32;100.00;99779.78;1662856;85;20999;-68
2021/06/12 09:16:37;;;;;;;3.20;2.80;;;;;;;28.84;100.00;99784.81;1662564;85;22026;-68
2021/06/12 09:19:17;;;;;;;3.17;2.80;;;;;;;28.55;100.00;99792.12;1663202;85;21133;-68
2021/06/12 09:21:53;;;;;;;5.03;2.62;;;;;;;28.26;100.00;99793.49;1662745;86;20976;-69
2021/06/12 09:24:27;;;;;;;3.33;2.40;;;;;;;27.98;100.00;99794.27;1658139;86;21500;-70
2021/06/12 09:27:02;;;;;;;4.17;2.67;;;;;;;27.70;100.00;99788.86;1663415;85;21096;-68
2021/06/12 09:29:40;;;;;;;3.05;2.22;;;;;;;27.32;100.00;99788.74;1663273;85;21806;-69
2021/06/12 09:32:25;;;;;;;4.83;2.58;;;;;;;27.01;100.00;99784.66;1663116;86;21721;-69
2021/06/12 09:34:57;;;;;;;5.23;2.73;;;;;;;26.76;100.00;99783.34;1663427;86;21070;-68
2021/06/12 09:37:27;;;;;;;3.30;2.37;;;;;;;26.73;100.00;99783.16;1662672;86;21062;-67
2021/06/12 09:40:06;;;;;;;4.70;2.80;;;;;;;26.66;100.00;99783.02;1661255;86;21940;-68
2021/06/12 09:42:54;;;;;;;3.53;2.37;;;;;;;26.72;100.00;99786.38;1663176;85;21153;-68
2021/06/12 09:45:30;;;;;;;3.90;3.00;;;;;;;26.85;100.00;99780.19;1657091;86;21459;-68
2021/06/12 09:48:17;;;;;;;3.30;2.77;;;;;;;27.01;100.00;99779.30;1663336;85;21066;-68
2021/06/12 09:50:46;;;;;;;3.97;2.63;;;;;;;27.01;100.00;99783.84;1662757;86;20920;-68
2021/06/12 09:53:20;;;;;;;3.50;3.10;;;;;;;27.02;100.00;99776.08;1663591;86;21100;-68
2021/06/12 09:55:48;;;;;;;4.37;3.07;;;;;;;26.83;100.00;99772.24;1663730;85;21143;-68
2021/06/12 09:58:15;;;;;;;3.30;2.80;;;;;;;26.79;100.00;99764.03;1663388;85;21012;-67
2021/06/12 10:00:46;;;;;;;4.37;2.73;;;;;;;26.80;100.00;99769.62;1662940;85;20963;-69
2021/06/12 10:03:27;;;;;;;3.60;2.80;;;;;;;26.66;100.00;99766.98;1669753;84;21925;-69
2021/06/12 10:06:16;;;;;;;3.40;2.97;;;;;;;26.75;100.00;99765.73;1700061;83;20905;-68
2021/06/12 10:08:45;;;;;;;;;;;;;;;26.64;100.00;99765.72;1722520;81;21091;-71
2021/06/12 10:11:15;;;;;;;4.20;2.80;;;;;;;26.92;100.00;99759.16;1720571;82;20124;-68
2021/06/12 10:13:46;;;;;;;3.93;2.60;;;;;;;27.25;100.00;99765.63;1717461;81;21485;-67
2021/06/12 10:16:13;;;;;;;2.60;1.82;;;;;;;27.63;100.00;99755.27;1719636;82;21545;-69
2021/06/12 10:18:41;;;;;;;2.35;1.70;;;;;;;28.20;100.00;99750.51;1687705;84;21448;-69
2021/06/12 10:21:15;;;;;;;1.97;1.40;;;;;;;28.58;100.00;99742.69;1687443;84;21172;-70
2021/06/12 10:23:44;;;;;;;2.30;1.72;;;;;;;28.85;100.00;99740.77;1699762;84;20997;-71
2021/06/12 10:26:13;;;;;;;1.95;1.42;;;;;;;29.33;100.00;99740.55;1699031;84;20950;-69
2021/06/12 10:28:39;;;;;;;4.72;2.05;;;;;;;29.85;100.00;99738.77;1687763;84;21121;-70
2021/06/12 10:31:09;;;;;;;2.87;1.98;;;;;;;30.41;100.00;99742.08;1687719;84;21011;-68
2021/06/12 10:33:36;;;;;;;2.87;1.75;;;;;;;30.80;100.00;99746.77;1699245;84;21940;-71
2021/06/12 10:36:19;;;;;;;2.77;2.00;;;;;;;31.19;99.13;99742.75;1719280;81;20990;-68
2021/06/12 10:38:46;;;;;;;2.17;1.57;;;;;;;31.52;96.26;99735.98;1720025;81;21044;-70
2021/06/12 10:41:22;;;;;;;2.00;1.42;;;;;;;32.04;82.30;99742.03;1720331;82;20939;-69
2021/06/12 10:43:51;;;;;;;1.90;1.50;;;;;;;32.09;72.48;99739.70;1680476;84;21032;-67
2021/06/12 10:46:27;;;;;;;2.98;1.52;;;;;;;32.09;72.48;99739.70;1694995;84;21491;-68
2021/06/12 10:48:59;;;;;;;1.90;1.50;;;;;;;32.10;67.54;99735.86;1720491;82;21018;-69
2021/06/12 10:51:34;;;;;;;3.52;1.75;;;;;;;31.69;70.52;99737.09;1720157;81;21019;-67
2021/06/12 10:54:35;;;;;;;2.33;1.80;;;;;;;31.24;77.46;99735.23;1720515;82;22013;-68
2021/06/12 10:57:02;;;;;;;2.77;2.10;;;;;;;30.75;84.31;99744.52;1713024;82;21070;-67
2021/06/12 10:59:44;;;;;;;3.12;2.10;;;;;;;30.15;93.62;99742.23;1688038;84;22137;-68
2021/06/12 11:02:21;;;;;;;2.87;2.00;;;;;;;29.78;100.00;99743.33;1695277;83;21081;-74
2021/06/12 11:04:52;;;;;;;3.15;2.35;;;;;;;29.67;100.00;99740.22;1659283;84;21482;-66
2021/06/12 11:07:27;;;;;;;3.33;2.35;;;;;;;29.52;100.00;99747.44;1660289;85;21384;-70
2021/06/12 11:10:15;;;;;;;3.37;2.02;;;;;;;29.38;100.00;99742.83;1653387;85;21442;-69
2021/06/12 11:12:55;;;;;;;2.90;2.00;;;;;;;29.33;100.00;99739.77;1660864;85;21154;-70
2021/06/12 11:15:27;;;;;;;3.30;2.27;;;;;;;29.43;100.00;99733.24;1650668;86;21024;-68
2021/06/12 11:18:20;;;;;;;3.40;2.33;;;;;;;29.33;100.00;99727.69;1660943;85;21560;-68
2021/06/12 11:21:05;;;;;;;3.08;2.10;;;;;;;29.33;100.00;99723.66;1658301;86;21031;-69
2021/06/12 11:23:54;;;;;;;3.12;2.15;;;;;;;29.31;100.00;99715.12;1659289;86;21469;-70
2021/06/12 11:26:18;;;;;;;2.00;1.70;;;;;;;29.30;100.00;99712.22;1656048;86;21802;-70
2021/06/12 11:28:46;;;;;;;3.60;2.37;;;;;;;29.41;100.00;99701.91;1637007;86;21059;-71
2021/06/12 11:31:30;;;;;;;3.98;2.30;;;;;;;29.74;100.00;99705.58;1657744;86;20947;-67
2021/06/12 11:34:21;;;;;;;3.60;2.70;;;;;;;29.97;100.00;99701.27;1663998;85;20960;-68
2021/06/12 11:37:09;;;;;;;3.00;2.22;;;;;;;30.54;100.00;99692.62;1657833;86;21090;-76
2021/06/12 11:39:57;;;;;;;3.20;2.33;;;;;;;31.14;94.93;99690.45;1656807;85;21228;-69
2021/06/12 11:42:43;;;;;;;4.47;3.95;;;;;;;31.37;94.95;99693.55;1659394;86;21134;-69
2021/06/12 11:45:18;;;;;;;3.27;2.45;;;;;;;31.21;98.24;99699.54;1650870;86;20975;-69
2021/06/12 11:47:44;;;;;;;3.58;2.67;;;;;;;31.07;95.43;99697.75;1660049;85;21565;-69
2021/06/12 11:50:11;;;;;;;3.80;2.50;;;;;;;31.05;92.60;99706.70;1651495;85;21138;-69
2021/06/12 11:52:43;;;;;;;4.62;2.80;;;;;;;30.41;99.77;99700.40;1661916;85;22139;-71